Terminal Aerodrome Forecast
Issued by NWS

Home | Current Version | Previous Version | Graphics & Text | Print | Product List | Glossary On
Versions: 1 2 3 4 5 6 7 8 9 10 11 12 13 14
000
FTUS43 KGRB 142341
TAFRHI
TAF
KRHI 142341Z 1500/1524 08011G17KT P6SM -SHRA OVC035 WS020/09040KT
      TEMPO 1501/1503 OVC020
     FM150300 07010G15KT P6SM SHRA OVC015
     FM150500 03010G17KT 5SM SHRA OVC008
     FM151100 34016G24KT 5SM SHRA OVC013
     FM151500 31012G19KT P6SM BKN025
     FM151900 31010G17KT P6SM BKN040
     FM152200 29006KT P6SM SCT040=

USA.gov is the U.S. government's official web portal to all federal, state and local government web resources and services.